Time;durP1;ratioP1;P1;durP2;ratioP2;P2;SDS_P1;SDS_P2;PMS_P1;PMS_P2;Temp;Humidity;BMP_temperature;BMP_pressure;BME280_temperature;BME280_humidity;BME280_pressure;Samples;Min_cycle;Max_cycle;Signal;HPM_P1;HPM_P2
2022/07/18 00:00:31;;;;;;;2.63;1.77;;;;;23.80;101351.00;;;;2077721;28;20770;-56
2022/07/18 00:01:32;;;;;;;3.43;1.70;;;;;23.30;101349.00;;;;2077556;28;21463;-56
2022/07/18 00:02:33;;;;;;;2.05;1.60;;;;;23.80;101345.00;;;;2077967;28;20279;-56
2022/07/18 00:03:33;;;;;;;2.27;1.83;;;;;23.80;101349.00;;;;2078604;28;20213;-57
2022/07/18 00:04:33;;;;;;;2.63;1.73;;;;;23.80;101344.00;;;;2077811;28;20213;-57
2022/07/18 00:05:34;;;;;;;2.43;1.60;;;;;23.80;101346.00;;;;2070608;28;20214;-57
2022/07/18 00:06:35;;;;;;;3.10;1.60;;;;;23.80;101346.00;;;;2070569;28;20713;-56
2022/07/18 00:07:35;;;;;;;3.65;1.85;;;;;23.80;101346.00;;;;2069506;28;20220;-57
2022/07/18 00:08:35;;;;;;;2.03;1.60;;;;;23.80;101342.00;;;;2070582;28;20288;-56
2022/07/18 00:09:36;;;;;;;3.13;1.50;;;;;23.80;101357.00;;;;2070561;28;20221;-56
2022/07/18 00:10:37;;;;;;;2.17;1.97;;;;;23.80;101347.00;;;;2070402;28;20222;-57
2022/07/18 00:11:37;;;;;;;1.80;1.60;;;;;23.80;101345.00;;;;2070594;28;20453;-56
2022/07/18 00:12:37;;;;;;;2.17;1.97;;;;;23.70;101357.00;;;;2070329;28;20214;-56
2022/07/18 00:13:38;;;;;;;2.40;1.50;;;;;23.80;101357.00;;;;2070589;28;20599;-56
2022/07/18 00:14:38;;;;;;;2.20;1.83;;;;;23.80;101346.00;;;;2069962;28;20627;-56
2022/07/18 00:15:38;;;;;;;2.10;1.50;;;;;23.80;101349.00;;;;2069838;28;20675;-56
2022/07/18 00:16:39;;;;;;;2.73;1.87;;;;;23.80;101343.00;;;;2070057;28;20618;-56
2022/07/18 00:17:39;;;;;;;2.10;1.40;;;;;23.70;101344.00;;;;2070125;28;20678;-56
2022/07/18 00:18:39;;;;;;;3.20;1.87;;;;;23.70;101342.00;;;;2071474;28;20618;-57
2022/07/18 00:19:40;;;;;;;2.90;1.70;;;;;23.70;101342.00;;;;2071607;28;20692;-56
2022/07/18 00:20:40;;;;;;;2.57;1.60;;;;;23.70;101343.00;;;;2071456;28;20210;-57
2022/07/18 00:21:40;;;;;;;3.50;1.50;;;;;23.70;101339.00;;;;2072133;28;20260;-57
2022/07/18 00:22:41;;;;;;;3.20;1.97;;;;;23.70;101341.00;;;;2072230;28;20623;-56
2022/07/18 00:23:41;;;;;;;4.73;1.53;;;;;23.70;101340.00;;;;2072061;28;20210;-56
2022/07/18 00:24:41;;;;;;;2.53;1.67;;;;;23.70;101333.00;;;;2070236;28;20329;-56
2022/07/18 00:25:42;;;;;;;3.23;1.50;;;;;23.70;101344.00;;;;2071870;28;20205;-56
2022/07/18 00:26:42;;;;;;;3.07;1.70;;;;;23.70;101337.00;;;;2072254;28;20284;-56
2022/07/18 00:27:42;;;;;;;2.10;1.63;;;;;23.70;101341.00;;;;2070308;28;20218;-56
2022/07/18 00:28:43;;;;;;;1.97;1.60;;;;;23.70;101335.00;;;;2071097;28;20225;-56
2022/07/18 00:29:43;;;;;;;2.53;1.40;;;;;23.70;101332.00;;;;2072162;28;20214;-56
2022/07/18 00:30:43;;;;;;;3.00;1.47;;;;;23.70;101328.00;;;;2071972;28;20210;-56
2022/07/18 00:31:44;;;;;;;3.47;1.73;;;;;23.70;101326.00;;;;2072139;28;20206;-57
2022/07/18 00:32:44;;;;;;;3.10;1.63;;;;;23.70;101330.00;;;;2072002;28;20578;-56
2022/07/18 00:33:44;;;;;;;2.43;1.63;;;;;23.70;101327.00;;;;2071967;28;20218;-56
2022/07/18 00:34:45;;;;;;;3.97;1.37;;;;;23.70;101334.00;;;;2072064;28;20397;-56
2022/07/18 00:35:45;;;;;;;3.23;2.07;;;;;23.70;101330.00;;;;2071766;28;20206;-57
2022/07/18 00:36:45;;;;;;;2.33;1.63;;;;;23.70;101249.00;;;;2071675;28;20214;-56
2022/07/18 00:37:46;;;;;;;1.83;1.70;;;;;23.70;101331.00;;;;2070791;28;20623;-56
2022/07/18 00:38:46;;;;;;;1.80;1.70;;;;;23.70;101328.00;;;;2071370;28;20633;-55
2022/07/18 00:39:46;;;;;;;1.70;1.50;;;;;23.70;101323.00;;;;2071162;28;20210;-56
2022/07/18 00:40:47;;;;;;;2.50;1.53;;;;;23.70;101318.00;;;;2071890;28;20211;-56
2022/07/18 00:41:48;;;;;;;1.73;1.63;;;;;23.70;101323.00;;;;2072128;28;20249;-56
2022/07/18 00:42:48;;;;;;;1.37;1.17;;;;;23.70;101290.00;;;;2071788;28;20210;-56
2022/07/18 00:43:49;;;;;;;1.83;1.47;;;;;23.70;101323.00;;;;2063364;28;20450;-56
2022/07/18 00:44:53;;;;;;;1.97;1.70;;;;;23.70;101323.00;;;;2062582;28;20611;-56
2022/07/18 00:45:54;;;;;;;1.90;1.50;;;;;23.70;101321.00;;;;2071223;28;20210;-56
2022/07/18 00:46:56;;;;;;;4.10;1.60;;;;;23.70;101321.00;;;;2071104;28;20207;-56
2022/07/18 00:47:56;;;;;;;1.70;1.50;;;;;23.70;101313.00;;;;2070381;28;20265;-56
2022/07/18 00:48:57;;;;;;;3.07;1.63;;;;;23.70;101314.00;;;;2071394;28;20661;-56
2022/07/18 00:49:57;;;;;;;3.17;1.43;;;;;23.70;101308.00;;;;2071838;28;20570;-56
2022/07/18 00:50:57;;;;;;;3.00;1.70;;;;;23.70;101307.00;;;;2071022;28;20210;-56
2022/07/18 00:51:57;;;;;;;2.60;1.60;;;;;23.70;101307.00;;;;2070752;28;20288;-56
2022/07/18 00:52:58;;;;;;;1.83;1.43;;;;;23.70;101312.00;;;;2071810;28;20303;-56
2022/07/18 00:53:58;;;;;;;1.83;1.50;;;;;23.70;101317.00;;;;2071838;28;20230;-56
2022/07/18 00:54:59;;;;;;;2.30;1.53;;;;;23.70;101306.00;;;;2071762;28;20277;-56
2022/07/18 00:56:00;;;;;;;3.17;1.67;;;;;23.70;101299.00;;;;2070914;28;20222;-56
2022/07/18 00:57:00;;;;;;;2.75;1.42;;;;;23.70;101303.00;;;;2062985;28;20578;-56
2022/07/18 00:58:01;;;;;;;2.07;1.40;;;;;23.70;101306.00;;;;2062059;28;20295;-56
2022/07/18 00:59:01;;;;;;;4.53;1.80;;;;;23.70;101304.00;;;;2054841;28;20318;-56
2022/07/18 01:01:43;;;;;;;1.48;1.17;;;;;23.70;101310.00;;;;2071370;28;20218;-56
2022/07/18 01:02:43;;;;;;;2.97;1.60;;;;;23.40;101295.00;;;;2071526;28;20996;-57
2022/07/18 01:03:43;;;;;;;2.13;1.40;;;;;23.70;101309.00;;;;2077891;28;20210;-56
2022/07/18 01:04:44;;;;;;;1.90;1.57;;;;;23.70;101311.00;;;;2079762;28;20209;-56
2022/07/18 01:05:44;;;;;;;2.90;1.83;;;;;23.70;101322.00;;;;2079864;28;20209;-56
2022/07/18 01:06:45;;;;;;;2.30;1.60;;;;;23.70;101315.00;;;;2079828;28;20213;-56
2022/07/18 01:07:45;;;;;;;2.47;1.30;;;;;23.70;101306.00;;;;2078960;28;20210;-56
2022/07/18 01:08:46;;;;;;;3.23;1.60;;;;;23.70;101311.00;;;;2078568;28;20694;-56
2022/07/18 01:09:46;;;;;;;1.80;1.30;;;;;23.70;101310.00;;;;2070362;28;20222;-56
2022/07/18 01:10:46;;;;;;;3.47;1.83;;;;;23.70;101312.00;;;;2067408;28;20229;-56
2022/07/18 01:11:47;;;;;;;2.60;1.50;;;;;23.70;101312.00;;;;2062114;28;20199;-56
2022/07/18 01:12:47;;;;;;;3.63;1.47;;;;;23.70;101312.00;;;;2062227;28;20215;-58
2022/07/18 01:13:48;;;;;;;1.87;1.40;;;;;23.70;101287.00;;;;2070587;28;20257;-56
2022/07/18 01:14:48;;;;;;;1.50;1.40;;;;;23.70;101314.00;;;;2070655;28;20293;-56
2022/07/18 01:15:49;;;;;;;2.80;1.47;;;;;23.70;101313.00;;;;2062577;28;20230;-56
2022/07/18 01:16:49;;;;;;;2.00;1.73;;;;;23.70;101314.00;;;;2062364;28;20310;-56
2022/07/18 01:17:49;;;;;;;3.43;1.80;;;;;23.70;101315.00;;;;2069109;28;20218;-56
2022/07/18 01:18:50;;;;;;;3.27;1.60;;;;;23.70;101312.00;;;;2062026;28;20230;-56
2022/07/18 01:19:50;;;;;;;4.53;1.77;;;;;23.70;101313.00;;;;2070512;28;20241;-56
2022/07/18 01:20:51;;;;;;;2.47;1.57;;;;;23.70;101310.00;;;;2070626;28;20214;-56
2022/07/18 01:21:51;;;;;;;2.83;1.47;;;;;23.70;101314.00;;;;2062483;28;20226;-56
2022/07/18 01:22:51;;;;;;;2.50;1.70;;;;;23.70;101309.00;;;;2062216;28;21110;-56
2022/07/18 01:23:52;;;;;;;1.83;1.37;;;;;23.70;101311.00;;;;2070020;28;20653;-56
2022/07/18 01:24:52;;;;;;;4.03;1.67;;;;;23.70;101312.00;;;;2070660;28;20591;-56
2022/07/18 01:25:52;;;;;;;1.97;1.50;;;;;23.60;101305.00;;;;2071840;28;20214;-56
2022/07/18 01:26:53;;;;;;;2.20;1.50;;;;;23.70;101306.00;;;;2062445;28;20329;-58
2022/07/18 01:27:53;;;;;;;1.67;1.37;;;;;23.60;101313.00;;;;2061157;28;20719;-56
2022/07/18 01:28:54;;;;;;;3.00;1.67;;;;;23.70;101311.00;;;;2078266;28;20751;-56
2022/07/18 01:29:54;;;;;;;1.90;1.43;;;;;23.60;101314.00;;;;2079130;28;20214;-56
2022/07/18 01:30:54;;;;;;;1.60;1.50;;;;;23.60;101318.00;;;;2070813;28;20237;-56
2022/07/18 01:31:55;;;;;;;2.10;1.67;;;;;23.70;101313.00;;;;2062780;28;20568;-56
2022/07/18 01:33:00;;;;;;;3.10;1.23;;;;;23.60;101310.00;;;;2070511;28;20214;-56
2022/07/18 01:34:01;;;;;;;2.10;1.65;;;;;23.60;101271.00;;;;2070974;28;20714;-57
2022/07/18 01:35:01;;;;;;;2.80;1.60;;;;;23.60;101310.00;;;;2063203;28;20215;-56
2022/07/18 01:36:02;;;;;;;3.00;1.43;;;;;23.60;101311.00;;;;2078782;28;20217;-56
2022/07/18 01:37:04;;;;;;;2.30;1.40;;;;;23.70;101307.00;;;;2062527;28;20230;-56
2022/07/18 01:38:04;;;;;;;2.45;1.95;;;;;23.70;101304.00;;;;2069962;28;20233;-56
2022/07/18 01:39:05;;;;;;;2.33;1.53;;;;;23.60;101307.00;;;;2075178;28;20256;-56
2022/07/18 01:40:09;;;;;;;4.47;1.60;;;;;23.60;101299.00;;;;2071512;28;20222;-56
2022/07/18 01:41:09;;;;;;;2.20;1.42;;;;;23.60;101298.00;;;;2071267;28;20213;-56
2022/07/18 01:42:10;;;;;;;2.50;1.70;;;;;23.60;101310.00;;;;2071350;28;20214;-56
2022/07/18 01:43:10;;;;;;;2.13;1.67;;;;;23.60;101302.00;;;;2071343;28;20214;-56
2022/07/18 01:44:11;;;;;;;2.50;1.40;;;;;23.60;101297.00;;;;2070767;28;20218;-56
2022/07/18 01:45:11;;;;;;;2.20;1.43;;;;;23.60;101303.00;;;;2070647;28;20233;-56
2022/07/18 01:46:11;;;;;;;1.60;1.50;;;;;23.60;101307.00;;;;2071401;28;20576;-56
2022/07/18 01:47:12;;;;;;;2.27;1.57;;;;;23.70;101296.00;;;;2065754;28;20214;-57
2022/07/18 01:48:12;;;;;;;3.60;1.37;;;;;23.60;101305.00;;;;2070344;28;20218;-56
2022/07/18 01:49:12;;;;;;;2.67;1.57;;;;;23.60;101300.00;;;;2071595;28;20301;-56
2022/07/18 01:50:13;;;;;;;1.93;1.50;;;;;23.60;101301.00;;;;2071133;28;20222;-57
2022/07/18 01:51:13;;;;;;;2.20;1.63;;;;;23.60;101305.00;;;;2068433;28;20261;-56
2022/07/18 01:52:14;;;;;;;2.73;1.40;;;;;23.60;101306.00;;;;2071320;28;20301;-56
2022/07/18 01:53:14;;;;;;;3.50;2.00;;;;;23.60;101302.00;;;;2073393;28;20678;-56
2022/07/18 01:54:14;;;;;;;1.73;1.30;;;;;23.60;101308.00;;;;2077766;28;20221;-56
2022/07/18 01:55:15;;;;;;;3.03;1.90;;;;;23.60;101299.00;;;;2079433;28;20221;-56
2022/07/18 01:56:15;;;;;;;2.33;1.40;;;;;23.60;101306.00;;;;2079485;28;20213;-56
2022/07/18 01:57:15;;;;;;;2.43;1.53;;;;;23.60;101307.00;;;;2078721;28;20372;-56
2022/07/18 01:58:16;;;;;;;2.10;1.80;;;;;23.60;101306.00;;;;2078788;28;20275;-56
2022/07/18 01:59:16;;;;;;;1.63;1.30;;;;;23.60;101306.00;;;;2070543;28;20214;-56
2022/07/18 02:00:17;;;;;;;2.30;1.60;;;;;23.60;101301.00;;;;2070589;28;20210;-56
2022/07/18 02:01:17;;;;;;;1.50;1.30;;;;;23.60;101306.00;;;;2078582;28;20228;-56
2022/07/18 02:02:17;;;;;;;2.00;1.80;;;;;23.60;101300.00;;;;2078456;28;20259;-56
2022/07/18 02:03:18;;;;;;;2.23;1.40;;;;;23.60;101299.00;;;;2078218;28;20209;-56
2022/07/18 02:04:18;;;;;;;2.77;1.50;;;;;23.60;101299.00;;;;2078543;28;20271;-56
2022/07/18 02:05:18;;;;;;;4.47;1.60;;;;;23.60;101328.00;;;;2078938;28;20241;-56
2022/07/18 02:06:19;;;;;;;2.37;1.57;;;;;23.60;101307.00;;;;2078807;28;20224;-58
2022/07/18 02:07:19;;;;;;;1.83;1.30;;;;;23.60;101302.00;;;;2078067;28;20291;-56
2022/07/18 02:08:19;;;;;;;3.17;1.60;;;;;23.60;101302.00;;;;2074682;28;20569;-56
2022/07/18 02:09:20;;;;;;;3.23;1.63;;;;;23.60;101304.00;;;;2078408;28;20646;-61
2022/07/18 02:10:20;;;;;;;2.50;1.50;;;;;23.60;101294.00;;;;2079293;28;20244;-59
2022/07/18 02:11:21;;;;;;;3.50;1.50;;;;;23.20;101302.00;;;;2078696;28;20210;-58
2022/07/18 02:12:21;;;;;;;1.80;1.20;;;;;23.60;101297.00;;;;2070141;28;20215;-56
2022/07/18 02:13:22;;;;;;;2.20;1.80;;;;;23.60;101300.00;;;;2075755;28;20221;-56
2022/07/18 02:14:22;;;;;;;1.60;1.30;;;;;23.60;101303.00;;;;2086823;28;20654;-56
2022/07/18 02:15:22;;;;;;;2.40;1.60;;;;;23.60;101299.00;;;;2079375;28;20221;-56
2022/07/18 02:16:23;;;;;;;4.33;1.80;;;;;23.60;101293.00;;;;2079241;28;20214;-57
2022/07/18 02:17:23;;;;;;;1.97;1.50;;;;;23.60;101319.00;;;;2078435;28;20264;-57
2022/07/18 02:18:23;;;;;;;2.20;1.33;;;;;23.60;101298.00;;;;2078076;28;20647;-56
2022/07/18 02:19:24;;;;;;;2.20;1.60;;;;;23.60;101300.00;;;;2078393;28;20888;-57
2022/07/18 02:20:24;;;;;;;2.03;1.27;;;;;23.60;101299.00;;;;2079197;28;20274;-56
2022/07/18 02:21:24;;;;;;;2.07;1.50;;;;;23.60;101301.00;;;;2079367;28;20220;-56
2022/07/18 02:22:25;;;;;;;2.67;1.73;;;;;23.60;101295.00;;;;2079219;28;20220;-56
2022/07/18 02:23:25;;;;;;;2.10;1.63;;;;;23.60;101296.00;;;;2078386;28;20213;-57
2022/07/18 02:24:26;;;;;;;2.03;1.60;;;;;23.60;101290.00;;;;2069964;28;20222;-56
2022/07/18 02:25:26;;;;;;;2.80;1.77;;;;;23.60;101297.00;;;;2078480;28;20214;-56
2022/07/18 02:26:27;;;;;;;1.87;1.30;;;;;23.60;101279.00;;;;2078826;28;20209;-56
2022/07/18 02:27:27;;;;;;;4.77;1.70;;;;;23.60;101284.00;;;;2077678;28;20865;-56
2022/07/18 02:28:27;;;;;;;2.77;1.50;;;;;23.50;101289.00;;;;2078547;28;20824;-56
2022/07/18 02:29:28;;;;;;;2.23;1.40;;;;;23.60;101286.00;;;;2077602;28;20218;-56
2022/07/18 02:30:28;;;;;;;2.77;1.50;;;;;23.60;101284.00;;;;2070641;28;20214;-56
2022/07/18 02:31:28;;;;;;;1.57;1.30;;;;;23.60;101287.00;;;;2073261;28;20218;-56
2022/07/18 02:32:29;;;;;;;1.73;1.53;;;;;23.60;101284.00;;;;2079221;28;20228;-57
2022/07/18 02:33:29;;;;;;;1.70;1.60;;;;;23.60;101285.00;;;;2078763;28;20221;-57
2022/07/18 02:34:30;;;;;;;2.60;1.73;;;;;23.60;101277.00;;;;2078473;28;20225;-56
2022/07/18 02:35:30;;;;;;;2.30;1.60;;;;;23.60;101281.00;;;;2078203;28;20237;-56
2022/07/18 02:36:30;;;;;;;1.90;1.47;;;;;23.60;101284.00;;;;2072673;28;20218;-56
2022/07/18 02:37:31;;;;;;;3.03;1.87;;;;;23.60;101282.00;;;;2070196;28;20217;-57
2022/07/18 02:38:31;;;;;;;3.10;1.63;;;;;23.60;101285.00;;;;2070506;28;20337;-56
2022/07/18 02:39:31;;;;;;;2.37;1.57;;;;;23.60;101285.00;;;;2068531;28;20214;-57
2022/07/18 02:40:32;;;;;;;2.83;1.80;;;;;23.60;101281.00;;;;2070310;28;20212;-57
2022/07/18 02:41:32;;;;;;;2.00;1.43;;;;;23.60;101286.00;;;;2061425;28;20219;-57
2022/07/18 02:42:32;;;;;;;1.77;1.40;;;;;23.60;101281.00;;;;2070292;28;20218;-57
2022/07/18 02:43:33;;;;;;;2.50;1.83;;;;;23.60;101286.00;;;;2071057;28;20217;-56
2022/07/18 02:44:33;;;;;;;3.10;1.67;;;;;23.60;101283.00;;;;2070940;28;20210;-57
2022/07/18 02:45:33;;;;;;;2.90;1.87;;;;;23.60;101283.00;;;;2069974;28;20706;-57
2022/07/18 02:46:34;;;;;;;1.93;1.57;;;;;23.60;101285.00;;;;2069830;28;20369;-57
2022/07/18 02:47:34;;;;;;;2.03;1.40;;;;;23.60;101273.00;;;;2069646;28;20220;-56
2022/07/18 02:48:34;;;;;;;2.50;1.40;;;;;23.60;101290.00;;;;2069540;28;20753;-57
2022/07/18 02:49:35;;;;;;;2.10;1.50;;;;;23.50;101284.00;;;;2070158;28;20225;-57
2022/07/18 02:50:35;;;;;;;3.47;1.67;;;;;23.60;101288.00;;;;2070095;28;20206;-56
2022/07/18 02:51:35;;;;;;;1.83;1.30;;;;;23.60;101282.00;;;;2066642;28;20612;-57
2022/07/18 02:52:36;;;;;;;1.90;1.47;;;;;23.60;101291.00;;;;2070701;28;20205;-56
2022/07/18 02:53:36;;;;;;;3.40;1.50;;;;;23.60;101283.00;;;;2070005;28;20268;-57
2022/07/18 02:54:37;;;;;;;2.57;1.50;;;;;23.60;101291.00;;;;2070219;28;20256;-57
2022/07/18 02:55:37;;;;;;;3.40;1.50;;;;;23.60;101289.00;;;;2070055;28;20208;-57
2022/07/18 02:56:38;;;;;;;3.07;1.70;;;;;23.60;101288.00;;;;2070159;28;20464;-56
2022/07/18 02:57:38;;;;;;;2.10;1.40;;;;;23.60;101289.00;;;;2069643;28;20230;-56
2022/07/18 02:58:39;;;;;;;1.93;1.50;;;;;23.60;101292.00;;;;2070817;28;20245;-57
2022/07/18 02:59:40;;;;;;;1.70;1.20;;;;;23.60;101285.00;;;;2070046;28;20245;-56
2022/07/18 03:00:40;;;;;;;1.80;1.60;;;;;23.60;101285.00;;;;2069999;28;20508;-56
2022/07/18 03:01:40;;;;;;;3.27;1.70;;;;;23.60;101283.00;;;;2070759;28;20629;-57
2022/07/18 03:02:42;;;;;;;2.40;1.70;;;;;23.50;101281.00;;;;2070660;28;20627;-57
2022/07/18 03:03:42;;;;;;;5.82;2.10;;;;;23.60;101283.00;;;;2070180;28;20301;-56
2022/07/18 03:04:43;;;;;;;1.60;1.40;;;;;23.50;101285.00;;;;2069968;28;20318;-56
2022/07/18 03:05:43;;;;;;;2.00;1.60;;;;;23.50;101288.00;;;;2070835;28;20268;-56
2022/07/18 03:06:43;;;;;;;2.27;1.40;;;;;23.60;101269.00;;;;2070516;28;20237;-56
2022/07/18 03:07:44;;;;;;;1.73;1.40;;;;;23.60;101286.00;;;;2069558;28;20302;-57
2022/07/18 03:08:44;;;;;;;5.33;1.60;;;;;23.60;101295.00;;;;2075545;28;20213;-56
2022/07/18 03:09:44;;;;;;;1.83;1.40;;;;;23.60;101289.00;;;;2078748;28;20206;-57
2022/07/18 03:10:45;;;;;;;1.77;1.27;;;;;23.60;101284.00;;;;2078153;28;20213;-56
2022/07/18 03:11:45;;;;;;;2.37;1.73;;;;;23.50;101286.00;;;;2070138;28;20240;-56
2022/07/18 03:12:45;;;;;;;2.63;1.67;;;;;23.50;101282.00;;;;2077891;28;20209;-57
2022/07/18 03:13:46;;;;;;;2.70;1.60;;;;;23.50;101279.00;;;;2078860;28;20260;-56
2022/07/18 03:14:46;;;;;;;3.50;1.80;;;;;23.50;101277.00;;;;2078607;28;20326;-56
2022/07/18 03:15:46;;;;;;;2.63;1.77;;;;;23.50;101279.00;;;;2078787;28;20217;-56
2022/07/18 03:16:47;;;;;;;4.10;1.80;;;;;23.50;101284.00;;;;2078700;28;20209;-56
2022/07/18 03:17:47;;;;;;;1.83;1.40;;;;;23.50;101278.00;;;;2077289;28;20259;-56
2022/07/18 03:18:47;;;;;;;1.67;1.53;;;;;23.50;101278.00;;;;2075862;28;20909;-56
2022/07/18 03:19:48;;;;;;;1.60;1.30;;;;;23.60;101273.00;;;;2074268;28;20591;-57
2022/07/18 03:20:48;;;;;;;2.90;1.47;;;;;23.50;101282.00;;;;2078611;28;20651;-56
2022/07/18 03:21:48;;;;;;;2.60;1.80;;;;;23.50;101287.00;;;;2078626;28;20224;-56
2022/07/18 03:22:48;;;;;;;4.20;1.60;;;;;23.50;101282.00;;;;2078814;28;20221;-56
2022/07/18 03:23:49;;;;;;;2.63;1.37;;;;;23.50;101280.00;;;;2078626;28;20245;-56
2022/07/18 03:24:49;;;;;;;2.57;1.73;;;;;23.50;101294.00;;;;2078548;28;20245;-56
2022/07/18 03:25:50;;;;;;;2.17;1.37;;;;;23.50;101271.00;;;;2071176;28;20686;-57
2022/07/18 03:26:51;;;;;;;1.50;1.20;;;;;23.50;101279.00;;;;2078414;28;20225;-56
2022/07/18 03:27:51;;;;;;;2.33;1.53;;;;;23.50;101272.00;;;;2077582;28;20283;-56
2022/07/18 03:28:52;;;;;;;1.93;1.33;;;;;23.50;101278.00;;;;2078211;28;20214;-56
2022/07/18 03:29:52;;;;;;;1.53;1.20;;;;;23.50;101267.00;;;;2078512;28;20244;-56
2022/07/18 03:30:53;;;;;;;1.60;1.27;;;;;23.60;101274.00;;;;2078052;28;20550;-56
2022/07/18 03:31:53;;;;;;;2.57;1.53;;;;;23.50;101268.00;;;;2077589;28;20221;-56
2022/07/18 03:32:54;;;;;;;2.17;1.60;;;;;23.50;101269.00;;;;2077616;28;20226;-56
2022/07/18 03:33:54;;;;;;;2.37;1.50;;;;;23.50;101271.00;;;;2078426;28;20209;-56
2022/07/18 03:34:54;;;;;;;2.87;2.00;;;;;23.50;101274.00;;;;2077575;28;20224;-56
2022/07/18 03:35:55;;;;;;;1.53;1.23;;;;;23.50;101275.00;;;;2069489;28;20237;-56
2022/07/18 03:36:55;;;;;;;2.27;1.53;;;;;23.50;101262.00;;;;2077293;28;20217;-56
2022/07/18 03:37:55;;;;;;;3.20;1.80;;;;;23.50;101262.00;;;;2077439;28;20213;-56
2022/07/18 03:38:55;;;;;;;1.80;1.30;;;;;23.50;101262.00;;;;2078123;28;20221;-56
2022/07/18 03:39:56;;;;;;;1.53;1.23;;;;;23.50;101263.00;;;;2077628;28;20232;-56
2022/07/18 03:40:56;;;;;;;2.53;1.63;;;;;23.50;101270.00;;;;2077614;28;20220;-56
2022/07/18 03:41:56;;;;;;;1.97;1.30;;;;;23.50;101269.00;;;;2073710;28;20221;-56
2022/07/18 03:42:57;;;;;;;2.13;1.53;;;;;23.50;101277.00;;;;2070132;28;20229;-56
2022/07/18 03:43:57;;;;;;;4.00;1.60;;;;;23.50;101271.00;;;;2070424;28;20206;-56
2022/07/18 03:44:57;;;;;;;3.53;1.70;;;;;23.50;101273.00;;;;2070224;28;20276;-56
2022/07/18 03:45:58;;;;;;;1.97;1.70;;;;;23.50;101271.00;;;;2070204;28;20296;-56
2022/07/18 03:46:58;;;;;;;1.83;1.57;;;;;23.50;101266.00;;;;2071076;28;20206;-56
2022/07/18 03:47:59;;;;;;;2.67;1.50;;;;;23.50;101264.00;;;;2077224;28;20224;-56
2022/07/18 03:48:59;;;;;;;3.17;1.60;;;;;23.50;101269.00;;;;2078220;28;20296;-56
2022/07/18 03:49:59;;;;;;;2.03;1.57;;;;;23.50;101267.00;;;;2078725;28;20220;-56
2022/07/18 03:51:00;;;;;;;2.10;1.47;;;;;23.50;101267.00;;;;2078190;28;20284;-56
2022/07/18 03:52:00;;;;;;;2.43;1.60;;;;;23.50;101267.00;;;;2077874;28;20217;-56
2022/07/18 03:53:00;;;;;;;2.30;1.53;;;;;23.50;101268.00;;;;2078296;28;20296;-56
2022/07/18 03:54:01;;;;;;;2.97;1.73;;;;;23.50;101263.00;;;;2078807;28;20217;-56
2022/07/18 03:55:01;;;;;;;1.90;1.57;;;;;23.50;101271.00;;;;2074751;28;20274;-57
2022/07/18 03:56:01;;;;;;;1.60;1.30;;;;;23.50;101268.00;;;;2075912;28;20213;-57
2022/07/18 03:57:02;;;;;;;1.80;1.30;;;;;23.50;101276.00;;;;2073066;28;20685;-57
2022/07/18 03:58:02;;;;;;;1.90;1.30;;;;;23.50;101277.00;;;;2074025;28;20875;-56
2022/07/18 03:59:02;;;;;;;3.50;1.63;;;;;23.50;101279.00;;;;2073389;28;20682;-57
2022/07/18 04:00:04;;;;;;;2.73;1.63;;;;;23.50;101266.00;;;;2074679;28;20297;-57
2022/07/18 04:01:05;;;;;;;2.17;1.48;;;;;23.50;101275.00;;;;2072945;28;20300;-57
2022/07/18 04:02:05;;;;;;;1.90;1.33;;;;;23.50;101275.00;;;;2076639;28;20500;-57
2022/07/18 04:03:05;;;;;;;3.10;1.60;;;;;23.50;101266.00;;;;2078984;28;20201;-57
2022/07/18 04:04:06;;;;;;;2.90;1.80;;;;;23.50;101275.00;;;;2074261;28;20214;-59
2022/07/18 04:05:06;;;;;;;2.53;1.50;;;;;23.50;101268.00;;;;2077888;28;20347;-58
2022/07/18 04:06:07;;;;;;;2.20;1.70;;;;;23.50;101267.00;;;;2077664;28;20221;-56
2022/07/18 04:07:07;;;;;;;2.80;1.27;;;;;23.50;101272.00;;;;2078660;28;20209;-57
2022/07/18 04:08:08;;;;;;;1.53;1.43;;;;;23.50;101269.00;;;;2066960;28;20222;-57
2022/07/18 04:09:08;;;;;;;2.20;1.23;;;;;23.50;101275.00;;;;2073281;28;20214;-56
2022/07/18 04:10:09;;;;;;;2.90;2.10;;;;;23.50;101263.00;;;;2070226;28;20256;-56
2022/07/18 04:11:09;;;;;;;2.03;1.40;;;;;23.50;101267.00;;;;2069044;28;20206;-56
2022/07/18 04:12:09;;;;;;;2.80;1.67;;;;;23.50;101263.00;;;;2073903;28;21003;-55
2022/07/18 04:13:10;;;;;;;2.33;1.63;;;;;23.50;101269.00;;;;2074329;28;20767;-55
2022/07/18 04:14:11;;;;;;;3.03;1.40;;;;;23.50;101269.00;;;;2075104;28;20700;-56
2022/07/18 04:15:11;;;;;;;1.60;1.30;;;;;23.50;101269.00;;;;2069430;28;20214;-56
2022/07/18 04:16:11;;;;;;;2.47;1.63;;;;;23.50;101272.00;;;;2070155;28;20661;-56
2022/07/18 04:17:12;;;;;;;2.33;1.50;;;;;23.50;101265.00;;;;2069580;28;20574;-55
2022/07/18 04:18:12;;;;;;;2.43;1.23;;;;;23.50;101286.00;;;;2069461;28;20689;-56
2022/07/18 04:19:12;;;;;;;2.80;1.80;;;;;23.50;101269.00;;;;2076929;28;20212;-56
2022/07/18 04:20:13;;;;;;;2.13;1.53;;;;;23.50;101160.00;;;;2078233;28;20209;-57
2022/07/18 04:21:14;;;;;;;2.00;1.53;;;;;23.50;101268.00;;;;2077684;28;20244;-55
2022/07/18 04:22:14;;;;;;;2.47;1.53;;;;;23.50;101268.00;;;;2069438;28;20453;-59
2022/07/18 04:23:16;;;;;;;2.80;1.40;;;;;23.50;101272.00;;;;2077741;28;20223;-56
2022/07/18 04:24:16;;;;;;;2.75;1.65;;;;;23.50;101269.00;;;;2069176;28;20903;-54
2022/07/18 04:25:17;;;;;;;1.80;1.57;;;;;23.50;101267.00;;;;2069201;28;20217;-55
2022/07/18 04:26:17;;;;;;;2.40;1.73;;;;;23.50;101267.00;;;;2063513;28;20637;-55
2022/07/18 04:27:18;;;;;;;2.87;1.60;;;;;23.50;101296.00;;;;2060870;28;20227;-55
2022/07/18 04:28:18;;;;;;;3.23;1.57;;;;;23.50;101272.00;;;;2069793;28;20952;-58
2022/07/18 04:29:18;;;;;;;1.77;1.60;;;;;23.50;101268.00;;;;2069389;28;20736;-56
2022/07/18 04:30:21;;;;;;;2.20;1.70;;;;;23.50;101258.00;;;;2071330;28;20221;-57
2022/07/18 04:31:21;;;;;;;5.40;1.70;;;;;23.50;101271.00;;;;2062514;28;20210;-55
2022/07/18 04:32:22;;;;;;;2.87;1.90;;;;;23.40;101268.00;;;;2061516;28;20254;-54
2022/07/18 04:33:22;;;;;;;1.63;1.40;;;;;23.50;101272.00;;;;2071131;28;20218;-55
2022/07/18 04:34:22;;;;;;;1.73;1.40;;;;;23.50;101270.00;;;;2078267;28;20217;-54
2022/07/18 04:35:23;;;;;;;2.40;1.67;;;;;23.40;101274.00;;;;2078048;28;20236;-55
2022/07/18 04:36:24;;;;;;;2.33;1.80;;;;;23.50;101277.00;;;;2069109;28;20206;-56
2022/07/18 04:37:24;;;;;;;2.40;1.63;;;;;23.50;101271.00;;;;2068596;28;20245;-56
2022/07/18 04:38:25;;;;;;;2.27;1.37;;;;;23.40;101273.00;;;;2076461;28;20691;-55
2022/07/18 04:39:25;;;;;;;2.43;1.37;;;;;23.40;101263.00;;;;2069919;28;20712;-56
2022/07/18 04:40:25;;;;;;;2.63;1.70;;;;;23.40;101273.00;;;;2070631;28;20241;-56
2022/07/18 04:41:26;;;;;;;2.03;1.60;;;;;23.50;101264.00;;;;2069964;28;20722;-55
2022/07/18 04:42:27;;;;;;;2.60;1.60;;;;;23.50;101258.00;;;;2075014;28;20214;-57
2022/07/18 04:43:27;;;;;;;2.00;1.60;;;;;23.50;101262.00;;;;2061301;28;20283;-57
2022/07/18 04:44:27;;;;;;;1.63;1.37;;;;;23.50;101267.00;;;;2066164;28;20215;-56
2022/07/18 04:45:27;;;;;;;2.10;1.50;;;;;22.80;101265.00;;;;2069651;28;20289;-56
2022/07/18 04:46:28;;;;;;;2.23;1.53;;;;;23.50;101267.00;;;;2061288;28;20211;-57
2022/07/18 04:47:28;;;;;;;2.13;1.43;;;;;23.50;101265.00;;;;2066447;28;20206;-56
2022/07/18 04:48:29;;;;;;;2.80;1.73;;;;;23.50;101275.00;;;;2062707;28;20293;-59
2022/07/18 04:49:29;;;;;;;2.10;1.70;;;;;23.50;101272.00;;;;2064988;28;20217;-58
2022/07/18 04:50:29;;;;;;;2.00;1.37;;;;;23.50;101277.00;;;;2077201;28;20241;-58
2022/07/18 04:51:30;;;;;;;1.60;1.50;;;;;23.50;101273.00;;;;2078164;28;20225;-58
2022/07/18 04:52:39;;;;;;;2.10;1.63;;;;;23.50;101272.00;;;;2075743;28;20217;-57
2022/07/18 04:53:39;;;;;;;2.25;1.65;;;;;23.40;101280.00;;;;2070738;28;20592;-57
2022/07/18 04:54:39;;;;;;;1.77;1.40;;;;;23.40;101269.00;;;;2070480;28;20253;-58
2022/07/18 04:55:40;;;;;;;3.27;1.87;;;;;22.80;101274.00;;;;2070360;28;20750;-56
2022/07/18 04:56:40;;;;;;;2.53;1.80;;;;;23.50;101270.00;;;;2077649;28;20240;-57
2022/07/18 04:57:41;;;;;;;2.63;1.80;;;;;23.40;101263.00;;;;2069271;28;20713;-56
2022/07/18 04:58:42;;;;;;;1.40;1.05;;;;;23.50;101258.00;;;;2069232;28;20210;-57
2022/07/18 04:59:42;;;;;;;2.90;1.63;;;;;23.40;101270.00;;;;2061041;28;20590;-57
2022/07/18 05:00:42;;;;;;;2.10;1.30;;;;;23.50;101268.00;;;;2061793;28;20254;-56